地図

経路データ

SID SEASON NUMBER BASIN SUBBASIN NAME ISO_TIME NATURE LAT LON WMO_WIND WMO_PRES WMO_AGENCY TRACK_TYPE DIST2LAND LANDFALL IFLAG USA_AGENCY USA_ATCF_ID USA_LAT USA_LON USA_RECORD USA_STATUS USA_WIND USA_PRES USA_SSHS USA_R34_NE USA_R34_SE USA_R34_SW USA_R34_NW USA_R50_NE USA_R50_SE USA_R50_SW USA_R50_NW USA_R64_NE USA_R64_SE USA_R64_SW USA_R64_NW USA_POCI USA_ROCI USA_RMW USA_EYE TOKYO_LAT TOKYO_LON TOKYO_GRADE TOKYO_WIND TOKYO_PRES TOKYO_R50_DIR TOKYO_R50_LONG TOKYO_R50_SHORT TOKYO_R30_DIR TOKYO_R30_LONG TOKYO_R30_SHORT TOKYO_LAND CMA_LAT CMA_LON CMA_CAT CMA_WIND CMA_PRES HKO_LAT HKO_LON HKO_CAT HKO_WIND HKO_PRES NEWDELHI_LAT NEWDELHI_LON NEWDELHI_GRADE NEWDELHI_WIND NEWDELHI_PRES NEWDELHI_CI NEWDELHI_DP NEWDELHI_POCI REUNION_LAT REUNION_LON REUNION_TYPE REUNION_WIND REUNION_PRES REUNION_TNUM REUNION_CI REUNION_RMW REUNION_R34_NE REUNION_R34_SE REUNION_R34_SW REUNION_R34_NW REUNION_R50_NE REUNION_R50_SE REUNION_R50_SW REUNION_R50_NW REUNION_R64_NE REUNION_R64_SE REUNION_R64_SW REUNION_R64_NW BOM_LAT BOM_LON BOM_TYPE BOM_WIND BOM_PRES BOM_TNUM BOM_CI BOM_RMW BOM_R34_NE BOM_R34_SE BOM_R34_SW BOM_R34_NW BOM_R50_NE BOM_R50_SE BOM_R50_SW BOM_R50_NW BOM_R64_NE BOM_R64_SE BOM_R64_SW BOM_R64_NW BOM_ROCI BOM_POCI BOM_EYE BOM_POS_METHOD BOM_PRES_METHOD NADI_LAT NADI_LON NADI_CAT NADI_WIND NADI_PRES WELLINGTON_LAT WELLINGTON_LON WELLINGTON_WIND WELLINGTON_PRES DS824_LAT DS824_LON DS824_STAGE DS824_WIND DS824_PRES TD9636_LAT TD9636_LON TD9636_STAGE TD9636_WIND TD9636_PRES TD9635_LAT TD9635_LON TD9635_WIND TD9635_PRES TD9635_ROCI NEUMANN_LAT NEUMANN_LON NEUMANN_CLASS NEUMANN_WIND NEUMANN_PRES MLC_LAT MLC_LON MLC_CLASS MLC_WIND MLC_PRES USA_GUST BOM_GUST BOM_GUST_PER REUNION_GUST REUNION_GUST_PER USA_SEAHGT USA_SEARAD_NE USA_SEARAD_SE USA_SEARAD_SW USA_SEARAD_NW STORM_SPEED STORM_DIR
1964222N20090 1964 59 NI BB NOT_NAMED 1964-08-08 18:00:00 TS 19.5000 89.8000 main 245 240 O________O____ jtwc_io IO061964 19.5000 89.8000 -1 19.5000 89.8000 TC 5 271
1964222N20090 1964 59 NI BB NOT_NAMED 1964-08-08 21:00:00 TS 19.5026 89.5425 main 238 235 P________P____ IO061964 19.5026 89.5425 -1 19.5026 89.5425 TC 5 270
1964222N20090 1964 59 NI BB NOT_NAMED 1964-08-09 00:00:00 TS 19.5000 89.3000 main 235 234 O________O____ jtwc_io IO061964 19.5000 89.3000 -1 19.5000 89.3000 TC 25 4 269
1964222N20090 1964 59 NI BB NOT_NAMED 1964-08-09 03:00:00 TS 19.4933 89.0867 main 234 234 P________PO___ IO061964 19.4925 89.0850 -1 19.4925 89.0850 TC 25 19.5000 89.1000 1 4 271
1964222N20090 1964 59 NI BB NOT_NAMED 1964-08-09 06:00:00 TS 19.5066 88.9007 main 234 215 O________OP___ jtwc_io IO061964 19.5000 88.9000 -1 19.5000 88.9000 TC 25 19.5331 88.9033 1 3 280
1964222N20090 1964 59 NI BB NOT_NAMED 1964-08-09 09:00:00 TS 19.5535 88.7351 main 215 207 P________PP___ IO061964 19.5500 88.7425 -1 19.5500 88.7425 TC 25 19.5628 88.7152 1 3 286
1964222N20090 1964 59 NI BB NOT_NAMED 1964-08-09 12:00:00 TS 19.5954 88.5815 main 207 191 O________OP___ jtwc_io IO061964 19.6000 88.6000 -1 19.6000 88.6000 TC 25 19.5862 88.5445 1 3 279
1964222N20090 1964 59 NI BB NOT_NAMED 1964-08-09 15:00:00 TS 19.6000 88.4283 main 191 183 P________PO___ IO061964 19.6000 88.4425 -1 19.6000 88.4425 TC 25 19.6000 88.4000 1 3 271
1964222N20090 1964 59 NI BB NOT_NAMED 1964-08-09 18:00:00 TS 19.6015 88.2949 main 183 175 O________OP___ jtwc_io IO061964 19.6000 88.3000 -1 19.6000 88.3000 TC 25 19.6044 88.2848 1 2 278
1964222N20090 1964 59 NI BB NOT_NAMED 1964-08-09 21:00:00 TS 19.6323 88.1982 main 175 160 P________PP___ IO061964 19.6424 88.2075 -1 19.6424 88.2075 TC 25 19.6121 88.1796 1 2 292
1964222N20090 1964 59 NI BB NOT_NAMED 1964-08-10 00:00:00 TS 19.6796 88.0865 main 160 142 O________OP___ jtwc_io IO061964 19.7000 88.1000 -1 19.7000 88.1000 TC 25 19.6388 88.0597 1 3 289
1964222N20090 1964 59 NI BB NOT_NAMED 1964-08-10 03:00:00 TS 19.7233 87.9199 main 142 118 P________PO___ IO061964 19.7350 87.9299 -1 19.7350 87.9299 TC 25 19.7000 87.9000 1 4 288
1964222N20090 1964 59 NI BB NOT_NAMED 1964-08-10 06:00:00 TS 19.7993 87.6880 main 118 85 O________OP___ jtwc_io IO061964 19.8000 87.7000 -1 19.8000 87.7000 TC 25 19.7980 87.6641 1 5 293
1964222N20090 1964 59 NI BB NOT_NAMED 1964-08-10 09:00:00 TS 19.9293 87.4009 main 85 47 P________PP___ IO061964 19.9276 87.4075 -1 19.9276 87.4075 TC 25 19.9327 87.3875 1 6 298
1964222N20090 1964 59 NI BB NOT_NAMED 1964-08-10 12:00:00 TS 20.1004 87.0974 main 47 10 O________OP___ jtwc_io IO061964 20.1000 87.1000 -1 20.1000 87.1000 TC 25 20.1011 87.0921 1 6 304
1964222N20090 1964 59 NI BB NOT_NAMED 1964-08-10 15:00:00 TS 20.2900 86.8283 main 10 0 P________PO___ IO061964 20.2849 86.8424 -1 20.2849 86.8424 TC 25 20.3000 86.8000 1 6 311
1964222N20090 1964 59 NI BB NOT_NAMED 1964-08-10 18:00:00 TS 20.4972 86.6047 main 0 0 O________OP___ jtwc_io IO061964 20.5000 86.6000 -1 20.5000 86.6000 TC 25 20.4916 86.6142 1 6 317
1964222N20090 1964 59 NI BB NOT_NAMED 1964-08-10 21:00:00 TS 20.7234 86.3897 main 0 0 P________PP___ IO061964 20.7273 86.3722 -1 20.7273 86.3722 TC 25 20.7154 86.4246 1 7 318
1964222N20090 1964 59 NI BB NOT_NAMED 1964-08-11 00:00:00 TS 20.9939 86.1243 main 0 0 O________OP___ jtwc_io IO061964 21.0000 86.1000 -1 21.0000 86.1000 TC 25 20.9817 86.1728 1 8 316
1964222N20090 1964 59 NI BB NOT_NAMED 1964-08-11 03:00:00 TS 21.3080 85.7829 main 0 0 P________PO___ IO061964 21.3121 85.7743 -1 21.3121 85.7743 TC 25 21.3000 85.8000 1 11 312
1964222N20090 1964 59 NI BB NOT_NAMED 1964-08-11 06:00:00 TS 21.7066 85.2853 main 0 0 O________OP___ jtwc_io IO061964 21.7000 85.3000 -1 21.7000 85.3000 TC 25 21.7197 85.2560 1 14 309
1964222N20090 1964 59 NI BB NOT_NAMED 1964-08-11 09:00:00 TS 22.2035 84.6016 main 0 0 P________PP___ IO061964 22.2152 84.6108 -1 22.2152 84.6108 TC 25 22.1802 84.5833 1 17 305
1964222N20090 1964 59 NI BB NOT_NAMED 1964-08-11 12:00:00 TS 22.6752 83.8062 main 0 0 O________OP___ jtwc_io IO061964 22.7000 83.8000 -1 22.7000 83.8000 TC 25 22.6255 83.8185 1 17 299
1964222N20090 1964 59 NI BB NOT_NAMED 1964-08-11 15:00:00 TS 23.0063 83.0147 main 0 0 P________PO___ IO061964 23.0095 83.0220 -1 23.0095 83.0220 TC 25 23.0000 83.0000 1 16 290
1964222N20090 1964 59 NI BB NOT_NAMED 1964-08-11 18:00:00 TS 23.2060 82.1820 main 0 0 O________OP___ jtwc_io IO061964 23.2000 82.2000 -1 23.2000 82.2000 TC 25 23.2181 82.1461 1 16 281
1964222N20090 1964 59 NI BB NOT_NAMED 1964-08-11 21:00:00 TS 23.3257 81.2810 main 0 0 P________PP___ IO061964 23.3076 81.2918 -1 23.3076 81.2918 TC 25 23.3618 81.2594 1 17 278
1964222N20090 1964 59 NI BB NOT_NAMED 1964-08-12 00:00:00 TS 23.4248 80.3977 main 0 0 O________OP___ jtwc_io IO061964 23.4000 80.4000 -1 23.4000 80.4000 TC 25 23.4744 80.3932 1 16 280
1964222N20090 1964 59 NI BB NOT_NAMED 1964-08-12 03:00:00 TS 23.5848 79.5984 main 0 0 P________PO___ IO061964 23.5772 79.5975 -1 23.5772 79.5975 TC 25 23.6000 79.6000 1 14 285
1964222N20090 1964 59 NI BB NOT_NAMED 1964-08-12 06:00:00 TS 23.7895 78.9071 main 0 0 O________OP___ jtwc_io IO061964 23.8000 78.9000 -1 23.8000 78.9000 TC 25 23.7738 78.9177 1 12 291
1964222N20090 1964 59 NI BB NOT_NAMED 1964-08-12 09:00:00 TS 24.0223 78.3222 main 0 0 P________PP___ IO061964 24.0453 78.3178 -1 24.0453 78.3178 TC 25 23.9916 78.3280 1 11 295
1964222N20090 1964 59 NI AS NOT_NAMED 1964-08-12 12:00:00 TS 24.2694 77.7997 main 0 0 O________OP___ jtwc_io IO061964 24.3000 77.8000 -1 24.3000 77.8000 TC 25 24.2388 77.7993 1 10 297
1964222N20090 1964 59 NI AS NOT_NAMED 1964-08-12 15:00:00 NR 24.5000 77.3000 main 0 __________O___ IO061964 -1 TC 24.5000 77.3000 1 10 297

IBTrACS Databaseについて

本データベースは、米国NOAAが公開する1842年以降の世界の熱帯低気圧のベストトラックデータアーカイブInternational Best Track Archive for Climate Stewardship (IBTrACS)を、ウェブで閲覧しやすい形式に変換したものです。

最終更新日:2021-12-03